createdAt,value
2018-08-03T00:01:27.416Z,20.45
2018-08-03T00:03:55.940Z,20.43
2018-08-03T00:06:24.491Z,20.38
2018-08-03T00:08:53.053Z,20.30
2018-08-03T00:11:21.639Z,20.27
2018-08-03T00:13:50.235Z,20.22
2018-08-03T00:16:18.711Z,20.17
2018-08-03T00:18:47.197Z,20.12
2018-08-03T00:21:15.772Z,20.09
2018-08-03T00:23:44.223Z,20.07
2018-08-03T00:26:22.699Z,20.04
2018-08-03T00:28:51.457Z,19.97
2018-08-03T00:31:20.793Z,19.95
2018-08-03T00:33:49.349Z,19.93
2018-08-03T00:36:17.868Z,19.88
2018-08-03T00:38:46.517Z,19.83
2018-08-03T00:41:15.094Z,19.77
2018-08-03T00:43:44.155Z,19.71
2018-08-03T00:46:12.762Z,19.66
2018-08-03T00:48:41.405Z,19.61
2018-08-03T00:51:10.008Z,19.56
2018-08-03T00:53:38.549Z,19.41
2018-08-03T00:56:08.045Z,19.33
2018-08-03T00:58:36.517Z,19.36
2018-08-03T01:01:05.214Z,19.36
2018-08-03T01:03:33.836Z,19.35
2018-08-03T01:06:02.629Z,19.31
2018-08-03T01:08:31.158Z,19.25
2018-08-03T01:10:59.645Z,19.23
2018-08-03T01:13:28.329Z,19.24
2018-08-03T01:15:56.907Z,19.25
2018-08-03T01:18:25.497Z,19.26
2018-08-03T01:20:54.660Z,19.24
2018-08-03T01:23:23.088Z,19.21
2018-08-03T01:25:51.763Z,19.16
2018-08-03T01:28:20.334Z,19.14
2018-08-03T01:30:49.129Z,19.12
2018-08-03T01:33:17.633Z,19.05
2018-08-03T01:35:46.329Z,18.88
2018-08-03T01:38:14.914Z,18.76
2018-08-03T01:40:43.365Z,18.73
2018-08-03T01:46:42.177Z,18.77
2018-08-03T01:53:14.349Z,18.82
2018-08-03T01:55:42.826Z,18.80
2018-08-03T01:58:11.258Z,18.76
2018-08-03T02:00:39.708Z,18.68
2018-08-03T02:03:08.240Z,18.66
2018-08-03T02:05:58.987Z,18.67
2018-08-03T02:08:45.127Z,18.66
2018-08-03T02:11:13.579Z,18.64
2018-08-03T02:13:42.302Z,18.59
2018-08-03T02:16:10.876Z,18.54
2018-08-03T02:18:39.316Z,18.49
2018-08-03T02:21:08.112Z,18.47
2018-08-03T02:23:36.627Z,18.50
2018-08-03T02:26:05.221Z,18.54
2018-08-03T02:28:33.777Z,18.53
2018-08-03T02:31:02.317Z,18.51
2018-08-03T02:33:30.773Z,18.50
2018-08-03T02:35:59.318Z,18.45
2018-08-03T02:38:27.846Z,18.38
2018-08-03T02:40:56.530Z,18.31
2018-08-03T02:43:25.162Z,18.30
2018-08-03T02:45:53.608Z,18.30
2018-08-03T02:48:22.084Z,18.32
2018-08-03T02:50:50.532Z,18.31
2018-08-03T02:53:19.103Z,18.31
2018-08-03T02:55:47.596Z,18.32
2018-08-03T02:58:16.179Z,18.34
2018-08-03T03:00:44.760Z,18.33
2018-08-03T03:03:13.345Z,18.30
2018-08-03T03:05:41.805Z,18.23
2018-08-03T03:08:18.066Z,18.18
2018-08-03T03:10:46.622Z,18.16
2018-08-03T03:13:15.172Z,18.15
2018-08-03T03:15:43.731Z,18.14
2018-08-03T03:18:12.217Z,18.12
2018-08-03T03:20:40.743Z,18.11
2018-08-03T03:23:09.277Z,18.06
2018-08-03T03:25:38.057Z,17.99
2018-08-03T03:28:06.554Z,17.91
2018-08-03T03:30:35.054Z,17.87
2018-08-03T03:33:03.516Z,17.84
2018-08-03T03:35:31.971Z,17.83
2018-08-03T03:38:00.467Z,17.81
2018-08-03T03:40:28.967Z,17.82
2018-08-03T03:42:57.466Z,17.82
2018-08-03T03:45:26.490Z,17.81
2018-08-03T03:47:55.009Z,17.82
2018-08-03T03:50:23.612Z,17.85
2018-08-03T03:52:52.047Z,17.80
2018-08-03T03:55:20.665Z,17.76
2018-08-03T03:57:49.073Z,17.70
2018-08-03T04:00:17.561Z,17.62
2018-08-03T04:02:46.191Z,17.57
2018-08-03T04:05:14.686Z,17.55
2018-08-03T04:07:43.512Z,17.57
2018-08-03T04:10:12.111Z,17.63
2018-08-03T04:12:40.972Z,17.67
2018-08-03T04:15:09.473Z,17.68
2018-08-03T04:17:37.926Z,17.70
2018-08-03T04:20:06.924Z,17.72
2018-08-03T04:22:35.709Z,17.71
2018-08-03T04:25:04.377Z,17.70
2018-08-03T04:27:33.285Z,17.70
2018-08-03T04:30:29.225Z,17.71
2018-08-03T04:32:57.800Z,17.71
2018-08-03T04:35:26.281Z,17.76
2018-08-03T04:37:54.783Z,17.77
2018-08-03T04:40:23.365Z,17.72
2018-08-03T04:42:52.022Z,17.72
2018-08-03T04:45:20.591Z,17.78
2018-08-03T04:47:49.233Z,17.85
2018-08-03T04:50:17.986Z,17.88
2018-08-03T04:52:46.595Z,17.92
2018-08-03T04:55:22.893Z,17.98
2018-08-03T04:57:51.428Z,18.03
2018-08-03T05:00:20.009Z,18.06
2018-08-03T05:02:48.460Z,18.14
2018-08-03T05:05:16.964Z,18.22
2018-08-03T05:07:45.457Z,18.30
2018-08-03T05:10:14.036Z,18.42
2018-08-03T05:12:42.565Z,18.54
2018-08-03T05:15:11.089Z,18.66
2018-08-03T05:17:39.679Z,18.77
2018-08-03T05:20:08.671Z,18.90
2018-08-03T05:22:37.268Z,19.00
2018-08-03T05:25:06.256Z,19.12
2018-08-03T05:27:34.837Z,19.22
2018-08-03T05:30:03.351Z,19.33
2018-08-03T05:32:31.898Z,19.44
2018-08-03T05:35:00.396Z,19.55
2018-08-03T05:37:28.969Z,19.64
2018-08-03T05:39:57.493Z,19.73
2018-08-03T05:42:26.101Z,19.82
2018-08-03T05:44:54.520Z,19.90
2018-08-03T05:47:22.968Z,19.95
2018-08-03T05:49:51.481Z,20.03
2018-08-03T05:52:19.970Z,20.13
2018-08-03T05:54:48.469Z,20.20
2018-08-03T05:57:17.221Z,20.25
2018-08-03T05:59:45.703Z,20.28
2018-08-03T06:02:14.227Z,20.34
2018-08-03T06:04:42.676Z,20.40
2018-08-03T06:07:11.161Z,20.48
2018-08-03T06:09:39.687Z,20.54
2018-08-03T06:12:08.221Z,20.62
2018-08-03T06:14:36.721Z,20.69
2018-08-03T06:17:05.356Z,20.80
2018-08-03T06:19:34.021Z,20.86
2018-08-03T06:22:02.577Z,20.93
2018-08-03T06:24:31.648Z,21.03
2018-08-03T06:27:00.276Z,21.12
2018-08-03T06:29:28.872Z,21.23
2018-08-03T06:31:57.460Z,21.31
2018-08-03T06:34:26.105Z,21.41
2018-08-03T06:36:54.579Z,21.48
2018-08-03T06:39:23.096Z,21.56
2018-08-03T06:41:51.652Z,21.65
2018-08-03T06:44:20.365Z,21.73
2018-08-03T06:46:48.910Z,21.82
2018-08-03T06:49:17.494Z,21.91
2018-08-03T06:51:45.986Z,21.97
2018-08-03T06:54:14.476Z,22.05
2018-08-03T06:56:43.039Z,22.17
2018-08-03T06:59:11.479Z,22.22
2018-08-03T07:01:40.117Z,22.27
2018-08-03T07:04:08.709Z,22.35
2018-08-03T07:06:37.204Z,22.43
2018-08-03T07:09:08.124Z,22.47
2018-08-03T07:11:37.159Z,22.57
2018-08-03T07:15:09.085Z,22.70
2018-08-03T07:17:37.597Z,22.83
2018-08-03T07:20:06.354Z,22.92
2018-08-03T07:22:34.883Z,23.07
2018-08-03T07:25:03.548Z,23.11
2018-08-03T07:27:32.028Z,23.23
2018-08-03T07:30:00.528Z,23.39
2018-08-03T07:32:29.089Z,23.50
2018-08-03T07:34:57.745Z,23.55
2018-08-03T07:37:26.275Z,23.68
2018-08-03T07:39:55.039Z,23.72
2018-08-03T07:42:23.508Z,23.80
2018-08-03T07:44:51.984Z,23.87
2018-08-03T07:47:20.480Z,23.92
2018-08-03T07:49:50.230Z,24.04
2018-08-03T07:52:18.746Z,24.15
2018-08-03T07:54:47.258Z,24.23
2018-08-03T07:57:15.767Z,24.35
2018-08-03T07:59:44.257Z,24.38
2018-08-03T08:02:12.796Z,24.42
2018-08-03T08:04:41.324Z,24.60
2018-08-03T08:07:09.794Z,24.73
2018-08-03T08:09:38.388Z,24.77
2018-08-03T08:12:07.029Z,24.80
2018-08-03T08:14:35.477Z,24.88
2018-08-03T08:17:04.035Z,24.98
2018-08-03T08:19:32.604Z,25.13
2018-08-03T08:22:01.161Z,25.27
2018-08-03T08:24:29.672Z,25.43
2018-08-03T08:26:58.248Z,25.52
2018-08-03T08:29:26.704Z,25.64
2018-08-03T08:31:55.390Z,25.74
2018-08-03T08:34:23.980Z,25.81
2018-08-03T08:36:52.479Z,25.94
2018-08-03T08:39:20.967Z,26.08
2018-08-03T08:41:49.519Z,26.24
2018-08-03T08:44:18.005Z,26.31
2018-08-03T08:46:46.500Z,26.40
2018-08-03T08:49:15.119Z,26.46
2018-08-03T08:51:43.753Z,26.53
2018-08-03T08:54:12.240Z,26.61
2018-08-03T08:56:40.810Z,26.72
2018-08-03T08:59:09.301Z,26.77
2018-08-03T09:01:37.758Z,26.84
2018-08-03T09:04:06.267Z,26.94
2018-08-03T09:06:34.718Z,27.04
2018-08-03T09:09:03.342Z,27.09
2018-08-03T09:11:31.825Z,27.22
2018-08-03T09:14:00.313Z,27.29
2018-08-03T09:16:28.880Z,27.38
2018-08-03T09:18:57.457Z,27.45
2018-08-03T09:21:25.937Z,27.60
2018-08-03T09:23:54.515Z,27.68
2018-08-03T09:26:22.982Z,27.71
2018-08-03T09:28:51.599Z,27.80
2018-08-03T09:31:20.063Z,27.86
2018-08-03T09:33:48.577Z,27.95
2018-08-03T09:36:17.232Z,28.05
2018-08-03T09:38:45.716Z,28.09
2018-08-03T09:41:14.400Z,28.18
2018-08-03T09:43:42.847Z,28.34
2018-08-03T09:46:11.689Z,28.55
2018-08-03T09:48:40.151Z,28.62
2018-08-03T09:51:08.625Z,28.69
2018-08-03T09:53:37.120Z,28.77
2018-08-03T09:56:05.744Z,28.91
2018-08-03T09:58:34.288Z,28.99
2018-08-03T10:01:08.050Z,29.09
2018-08-03T10:03:36.492Z,29.26
2018-08-03T10:06:05.008Z,29.29
2018-08-03T10:08:33.631Z,29.33
2018-08-03T10:11:02.283Z,29.44
2018-08-03T10:13:30.807Z,29.51
2018-08-03T10:15:59.553Z,29.63
2018-08-03T10:18:28.096Z,29.70
2018-08-03T10:20:56.756Z,29.87
2018-08-03T10:23:25.357Z,30.01
2018-08-03T10:25:53.935Z,30.12
2018-08-03T10:28:22.415Z,30.29
2018-08-03T10:30:51.051Z,30.48
2018-08-03T10:33:19.565Z,30.55
2018-08-03T10:35:48.169Z,30.65
2018-08-03T10:38:16.774Z,30.73
2018-08-03T10:40:45.572Z,30.85
2018-08-03T10:43:14.395Z,30.98
2018-08-03T10:45:43.550Z,31.11
2018-08-03T10:48:12.463Z,31.14
2018-08-03T10:50:50.409Z,31.19
2018-08-03T10:53:19.047Z,31.32
2018-08-03T10:55:47.590Z,31.39
2018-08-03T10:58:16.177Z,31.46
2018-08-03T11:00:44.682Z,31.33
2018-08-03T11:03:13.249Z,31.28
2018-08-03T11:05:41.909Z,31.39
2018-08-03T11:08:35.007Z,31.58
2018-08-03T11:11:03.480Z,31.51
2018-08-03T11:13:33.360Z,31.49
2018-08-03T11:16:01.851Z,31.57
2018-08-03T11:18:30.322Z,31.53
2018-08-03T11:20:58.842Z,31.46
2018-08-03T11:23:27.388Z,31.58
2018-08-03T11:25:55.971Z,31.88
2018-08-03T11:28:24.502Z,31.99
2018-08-03T11:30:52.923Z,31.82
2018-08-03T11:33:22.605Z,31.90
2018-08-03T11:35:51.068Z,31.92
2018-08-03T11:38:19.596Z,32.06
2018-08-03T11:40:48.165Z,32.15
2018-08-03T11:43:16.697Z,32.28
2018-08-03T11:45:45.254Z,32.55
2018-08-03T11:48:13.722Z,32.79
2018-08-03T11:50:42.221Z,33.32
2018-08-03T11:53:10.929Z,33.94
2018-08-03T11:55:39.496Z,34.49
2018-08-03T11:58:08.104Z,34.57
2018-08-03T12:00:36.703Z,34.67
2018-08-03T12:03:13.125Z,34.79
2018-08-03T12:05:41.628Z,34.87
2018-08-03T12:08:10.329Z,34.89
2018-08-03T12:10:39.800Z,34.71
2018-08-03T12:13:08.324Z,34.73
2018-08-03T12:15:36.872Z,34.85
2018-08-03T12:18:05.635Z,35.32
2018-08-03T12:20:34.107Z,35.46
2018-08-03T12:23:02.715Z,35.81
2018-08-03T12:25:31.236Z,36.18
2018-08-03T12:27:59.776Z,36.11
2018-08-03T12:30:28.258Z,36.39
2018-08-03T12:32:56.708Z,36.97
2018-08-03T12:35:25.419Z,37.36
2018-08-03T12:37:54.103Z,37.72
2018-08-03T12:43:22.148Z,37.66
2018-08-03T12:45:50.613Z,37.77
2018-08-03T12:48:19.146Z,37.79
2018-08-03T12:50:47.748Z,37.96
2018-08-03T12:53:16.233Z,38.11
2018-08-03T12:55:44.813Z,38.01
2018-08-03T12:58:13.932Z,37.96
2018-08-03T13:00:42.418Z,37.81
2018-08-03T13:03:10.854Z,37.82
2018-08-03T13:05:39.353Z,38.05
2018-08-03T13:08:08.269Z,38.50
2018-08-03T13:10:36.592Z,38.71
2018-08-03T13:13:05.268Z,38.97
2018-08-03T13:15:33.820Z,39.04
2018-08-03T13:18:02.396Z,38.98
2018-08-03T13:20:30.874Z,38.65
2018-08-03T13:23:01.568Z,38.36
2018-08-03T13:25:30.058Z,38.61
2018-08-03T13:27:58.627Z,38.64
2018-08-03T13:30:27.254Z,38.21
2018-08-03T13:32:55.811Z,37.96
2018-08-03T13:35:24.399Z,37.90
2018-08-03T13:37:52.976Z,38.04
2018-08-03T13:40:21.499Z,38.27
2018-08-03T13:42:50.020Z,38.02
2018-08-03T13:45:18.470Z,37.79
2018-08-03T13:47:46.939Z,37.83
2018-08-03T13:50:15.387Z,37.62
2018-08-03T13:52:44.065Z,37.22
2018-08-03T13:55:12.737Z,37.08
2018-08-03T13:57:41.291Z,37.10
2018-08-03T14:00:11.334Z,37.25
2018-08-03T14:02:39.950Z,37.57
2018-08-03T14:05:10.174Z,37.74
2018-08-03T14:07:38.819Z,37.61
2018-08-03T14:10:08.569Z,37.47
2018-08-03T14:12:51.516Z,37.31
2018-08-03T14:15:35.013Z,37.38
2018-08-03T14:18:36.098Z,37.29
2018-08-03T14:21:04.586Z,37.29
2018-08-03T14:23:33.138Z,37.49
2018-08-03T14:26:01.692Z,37.40
2018-08-03T14:28:30.157Z,37.32
2018-08-03T14:31:02.637Z,37.09
2018-08-03T14:33:31.276Z,37.04
2018-08-03T14:35:59.823Z,36.91
2018-08-03T14:38:33.274Z,36.77
2018-08-03T14:41:01.781Z,36.73
2018-08-03T14:43:30.311Z,36.54
2018-08-03T14:45:59.029Z,36.49
2018-08-03T14:48:27.476Z,36.43
2018-08-03T14:50:56.025Z,36.32
2018-08-03T14:53:24.481Z,36.36
2018-08-03T14:55:52.983Z,36.30
2018-08-03T14:58:21.547Z,36.16
2018-08-03T15:00:50.053Z,36.23
2018-08-03T15:03:18.697Z,36.45
2018-08-03T15:05:47.248Z,36.50
2018-08-03T15:08:15.758Z,36.52
2018-08-03T15:10:44.189Z,36.56
2018-08-03T15:13:12.753Z,36.51
2018-08-03T15:15:41.304Z,36.35
2018-08-03T15:18:51.031Z,36.32
2018-08-03T15:21:19.545Z,36.24
2018-08-03T15:23:48.229Z,36.21
2018-08-03T15:26:16.697Z,36.15
2018-08-03T15:28:45.187Z,36.09
2018-08-03T15:31:13.628Z,36.18
2018-08-03T15:33:42.140Z,36.26
2018-08-03T15:36:10.581Z,36.31
2018-08-03T15:38:39.085Z,36.30
2018-08-03T15:41:07.838Z,36.23
2018-08-03T15:43:36.369Z,36.12
2018-08-03T15:46:04.984Z,36.06
2018-08-03T15:48:33.525Z,36.13
2018-08-03T15:51:02.040Z,36.06
2018-08-03T15:53:30.526Z,36.01
2018-08-03T15:55:59.174Z,35.92
2018-08-03T15:58:27.650Z,35.89
2018-08-03T16:00:56.183Z,35.86
2018-08-03T16:03:24.681Z,35.84
2018-08-03T16:05:53.261Z,35.85
2018-08-03T16:08:21.790Z,35.84
2018-08-03T16:10:50.270Z,35.99
2018-08-03T16:13:18.747Z,35.95
2018-08-03T16:15:47.243Z,35.83
2018-08-03T16:18:15.813Z,35.81
2018-08-03T16:20:44.299Z,35.93
2018-08-03T16:23:12.786Z,35.88
2018-08-03T16:25:43.618Z,35.64
2018-08-03T16:28:12.108Z,35.56
2018-08-03T16:30:40.551Z,35.62
2018-08-03T16:33:09.046Z,35.63
2018-08-03T16:35:37.512Z,35.49
2018-08-03T16:38:06.014Z,35.55
2018-08-03T16:40:34.596Z,35.61
2018-08-03T16:43:03.175Z,35.54
2018-08-03T16:45:31.681Z,35.52
2018-08-03T16:48:00.256Z,35.51
2018-08-03T16:50:28.836Z,35.40
2018-08-03T16:52:57.268Z,35.19
2018-08-03T16:55:25.784Z,35.09
2018-08-03T16:57:54.276Z,35.05
2018-08-03T17:00:22.879Z,35.01
2018-08-03T17:02:51.419Z,34.98
2018-08-03T17:05:20.003Z,34.95
2018-08-03T17:08:00.876Z,34.87
2018-08-03T17:10:29.442Z,34.83
2018-08-03T17:12:57.944Z,34.77
2018-08-03T17:15:26.376Z,34.64
2018-08-03T17:17:54.925Z,34.54
2018-08-03T17:20:23.363Z,34.44
2018-08-03T17:22:51.881Z,34.37
2018-08-03T17:25:20.446Z,34.32
2018-08-03T17:27:49.636Z,34.21
2018-08-03T17:30:18.062Z,34.10
2018-08-03T17:32:46.615Z,33.96
2018-08-03T17:35:15.196Z,33.88
2018-08-03T17:37:43.626Z,33.82
2018-08-03T17:40:12.161Z,33.75
2018-08-03T17:42:40.799Z,33.63
2018-08-03T17:45:09.227Z,33.53
2018-08-03T17:47:37.828Z,33.52
2018-08-03T17:50:06.583Z,33.47
2018-08-03T17:52:35.100Z,33.40
2018-08-03T17:55:03.680Z,33.31
2018-08-03T17:57:32.136Z,33.19
2018-08-03T18:00:00.678Z,33.06
2018-08-03T18:02:29.213Z,32.88
2018-08-03T18:04:57.685Z,32.72
2018-08-03T18:07:26.285Z,32.51
2018-08-03T18:09:54.745Z,32.34
2018-08-03T18:13:00.116Z,32.21
2018-08-03T18:15:40.569Z,32.00
2018-08-03T18:18:09.161Z,31.77
2018-08-03T18:20:37.732Z,31.66
2018-08-03T18:23:06.410Z,31.56
2018-08-03T18:25:34.929Z,31.35
2018-08-03T18:28:03.551Z,31.14
2018-08-03T18:30:32.101Z,30.87
2018-08-03T18:33:00.577Z,30.74
2018-08-03T18:35:29.119Z,30.67
2018-08-03T18:37:57.619Z,30.62
2018-08-03T18:40:26.193Z,30.50
2018-08-03T18:42:54.772Z,30.42
2018-08-03T18:45:23.196Z,30.37
2018-08-03T18:47:51.732Z,30.30
2018-08-03T18:50:20.217Z,30.27
2018-08-03T18:52:48.661Z,30.19
2018-08-03T18:55:17.310Z,30.06
2018-08-03T18:57:45.876Z,29.93
2018-08-03T19:00:14.368Z,29.71
2018-08-03T19:02:42.863Z,29.55
2018-08-03T19:05:11.438Z,29.41
2018-08-03T19:07:40.000Z,29.30
2018-08-03T19:10:08.515Z,29.14
2018-08-03T19:12:37.046Z,29.02
2018-08-03T19:15:06.401Z,28.91
2018-08-03T19:17:34.959Z,28.76
2018-08-03T19:20:03.580Z,28.73
2018-08-03T19:22:32.117Z,28.72
2018-08-03T19:25:00.612Z,28.64
2018-08-03T19:27:29.068Z,28.56
2018-08-03T19:29:57.694Z,28.53
2018-08-03T19:32:26.294Z,28.53
2018-08-03T19:35:09.525Z,28.49
2018-08-03T19:37:38.072Z,28.42
2018-08-03T19:40:07.297Z,28.37
2018-08-03T19:42:35.915Z,28.36
2018-08-03T19:45:04.962Z,28.30
2018-08-03T19:47:33.461Z,28.19
2018-08-03T19:50:02.005Z,28.09
2018-08-03T19:52:30.685Z,28.03
2018-08-03T19:54:59.275Z,27.86
2018-08-03T19:57:27.881Z,27.65
2018-08-03T19:59:56.446Z,27.61
2018-08-03T20:02:25.041Z,27.55
2018-08-03T20:04:54.681Z,27.48
2018-08-03T20:07:23.253Z,27.45
2018-08-03T20:09:51.978Z,27.38
2018-08-03T20:12:20.661Z,27.32
2018-08-03T20:14:49.198Z,27.16
2018-08-03T20:17:17.781Z,27.03
2018-08-03T20:19:46.360Z,26.96
2018-08-03T20:22:17.946Z,26.94
2018-08-03T20:24:46.834Z,26.88
2018-08-03T20:27:16.097Z,26.75
2018-08-03T20:29:45.101Z,26.64
2018-08-03T20:32:13.733Z,26.58
2018-08-03T20:34:42.261Z,26.50
2018-08-03T20:37:11.181Z,26.30
2018-08-03T20:39:39.765Z,26.20
2018-08-03T20:42:08.740Z,26.07
2018-08-03T20:44:37.331Z,25.93
2018-08-03T20:47:05.906Z,25.80
2018-08-03T20:49:34.489Z,25.67
2018-08-03T20:52:03.119Z,25.55
2018-08-03T20:54:31.778Z,25.46
2018-08-03T20:57:18.756Z,25.37
2018-08-03T20:59:49.526Z,25.24
2018-08-03T21:02:29.391Z,25.13
2018-08-03T21:04:58.660Z,25.02
2018-08-03T21:07:27.987Z,24.93
2018-08-03T21:09:57.025Z,24.82
2018-08-03T21:12:25.530Z,24.76
2018-08-03T21:14:54.000Z,24.66
2018-08-03T21:17:22.505Z,24.60
2018-08-03T21:19:51.047Z,24.56
2018-08-03T21:22:19.523Z,24.55
2018-08-03T21:24:48.031Z,24.49
2018-08-03T21:27:16.620Z,24.45
2018-08-03T21:29:45.208Z,24.49
2018-08-03T21:32:13.785Z,24.50
2018-08-03T21:34:42.379Z,24.53
2018-08-03T21:37:11.015Z,24.53
2018-08-03T21:39:39.617Z,24.52
2018-08-03T21:42:08.103Z,24.55
2018-08-03T21:44:36.916Z,24.54
2018-08-03T21:47:05.494Z,24.53
2018-08-03T21:49:33.998Z,24.51
2018-08-03T21:52:02.600Z,24.50
2018-08-03T21:54:31.155Z,24.46
2018-08-03T21:56:59.757Z,24.39
2018-08-03T21:59:28.335Z,24.28
2018-08-03T22:01:57.210Z,24.19
2018-08-03T22:04:25.766Z,24.15
2018-08-03T22:06:54.361Z,24.10
2018-08-03T22:09:22.844Z,24.06
2018-08-03T22:12:15.734Z,24.03
2018-08-03T22:14:49.328Z,23.93
2018-08-03T22:17:17.887Z,23.84
2018-08-03T22:19:46.512Z,23.77
2018-08-03T22:22:26.014Z,23.72
2018-08-03T22:24:54.719Z,23.68
2018-08-03T22:27:23.278Z,23.64
2018-08-03T22:29:51.932Z,23.60
2018-08-03T22:32:20.623Z,23.52
2018-08-03T22:34:49.132Z,23.44
2018-08-03T22:37:17.860Z,23.36
2018-08-03T22:39:46.621Z,23.30
2018-08-03T22:42:15.272Z,23.22
2018-08-03T22:44:43.774Z,23.18
2018-08-03T22:47:22.698Z,23.14
2018-08-03T22:49:52.086Z,23.09
2018-08-03T22:52:20.676Z,23.06
2018-08-03T22:54:49.197Z,23.01
2018-08-03T22:57:17.774Z,22.99
2018-08-03T22:59:46.372Z,22.91
2018-08-03T23:02:14.868Z,22.84
2018-08-03T23:04:43.395Z,22.77
2018-08-03T23:07:11.902Z,22.76
2018-08-03T23:09:40.364Z,22.76
2018-08-03T23:12:08.860Z,22.76
2018-08-03T23:14:37.452Z,22.74
2018-08-03T23:17:06.057Z,22.72
2018-08-03T23:19:34.603Z,22.65
2018-08-03T23:22:03.083Z,22.57
2018-08-03T23:24:31.550Z,22.54
2018-08-03T23:27:00.162Z,22.47
2018-08-03T23:29:28.639Z,22.42
2018-08-03T23:31:57.127Z,22.44
2018-08-03T23:34:25.551Z,22.48
2018-08-03T23:36:54.061Z,22.54
2018-08-03T23:39:22.732Z,22.61
2018-08-03T23:41:51.264Z,22.66
2018-08-03T23:44:19.730Z,22.61
2018-08-03T23:46:48.450Z,22.56
2018-08-03T23:49:16.995Z,22.56
2018-08-03T23:51:45.578Z,22.58
2018-08-03T23:54:14.151Z,22.58
2018-08-03T23:56:42.617Z,22.59
2018-08-03T23:59:11.115Z,22.61
